Time;durP1;ratioP1;P1;durP2;ratioP2;P2;SDS_P1;SDS_P2;PMS_P1;PMS_P2;Temp;Humidity;BMP_temperature;BMP_pressure;BME280_temperature;BME280_humidity;BME280_pressure;Samples;Min_cycle;Max_cycle;Signal;HPM_P1;HPM_P2
2021/09/16 00:02:29;;;;;;;;;17.00;16.25;;;;;21.74;44.59;101123.66;146604;591;46006;-77
2021/09/16 00:05:03;;;;;;;;;22.50;17.25;;;;;21.80;43.79;101125.50;146600;582;46019;-78
2021/09/16 00:07:37;;;;;;;;;19.00;16.75;;;;;21.89;44.04;101125.59;146605;575;46018;-80
2021/09/16 00:10:12;;;;;;;;;17.25;17.25;;;;;21.95;43.80;101128.31;146600;589;46018;-82
2021/09/16 00:12:46;;;;;;;;;18.25;15.50;;;;;22.02;43.90;101132.78;146603;597;47006;-78
2021/09/16 00:15:20;;;;;;;;;20.50;18.50;;;;;22.09;44.09;101132.00;146600;601;46018;-80
2021/09/16 00:17:54;;;;;;;;;20.25;18.75;;;;;22.12;44.13;101134.69;146601;680;46019;-72
2021/09/16 00:20:28;;;;;;;;;18.75;16.00;;;;;22.14;44.07;101122.34;146598;564;47913;-74
2021/09/16 00:23:05;;;;;;;;;18.75;17.50;;;;;22.17;44.04;101125.94;146600;597;46018;-74
2021/09/16 00:25:39;;;;;;;;;17.25;16.00;;;;;22.13;44.12;101131.16;146599;570;46022;-74
2021/09/16 00:28:14;;;;;;;;;20.50;18.75;;;;;22.13;44.44;101141.72;146602;565;46018;-75
2021/09/16 00:30:58;;;;;;;;;15.75;14.75;;;;;22.06;44.32;101142.53;146597;606;46912;-75
2021/09/16 00:33:32;;;;;;;;;17.75;16.50;;;;;22.02;44.31;101143.34;146603;583;46019;-75
2021/09/16 00:36:06;;;;;;;;;17.75;15.25;;;;;21.93;44.89;101148.53;146602;729;46018;-75
2021/09/16 00:38:40;;;;;;;;;17.00;16.00;;;;;21.80;45.28;101150.12;146603;590;46018;-74
2021/09/16 00:41:14;;;;;;;;;20.00;18.00;;;;;21.67;45.69;101149.09;146596;576;47010;-75
2021/09/16 00:43:48;;;;;;;;;20.50;18.50;;;;;21.56;46.25;101155.13;146599;700;46018;-79
2021/09/16 00:46:22;;;;;;;;;20.50;20.50;;;;;21.43;46.69;101146.13;146598;587;46010;-72
2021/09/16 00:48:56;;;;;;;;;23.25;20.50;;;;;21.34;46.60;101145.97;146602;593;46019;-74
2021/09/16 00:51:30;;;;;;;;;21.75;20.00;;;;;21.28;46.62;101141.53;146597;578;47010;-73
2021/09/16 00:54:12;;;;;;;;;22.75;22.00;;;;;21.20;46.46;101145.78;146602;591;46017;-72
2021/09/16 00:56:50;;;;;;;;;21.00;18.25;;;;;21.13;46.18;101136.91;146598;564;47911;-74
2021/09/16 00:59:26;;;;;;;;;20.75;16.00;;;;;21.14;46.12;101143.06;146602;614;46018;-72
2021/09/16 01:02:00;;;;;;;;;19.75;18.25;;;;;21.17;46.00;101138.72;146597;629;46010;-71
2021/09/16 01:04:36;;;;;;;;;17.00;16.00;;;;;21.26;45.78;101142.37;146600;569;47008;-73
2021/09/16 01:07:14;;;;;;;;;19.50;16.50;;;;;21.30;45.69;101137.12;146596;599;46018;-72
2021/09/16 01:09:48;;;;;;;;;21.00;19.50;;;;;21.34;45.62;101135.44;146600;688;46912;-72
2021/09/16 01:12:22;;;;;;;;;21.00;19.75;;;;;21.35;45.63;101129.31;146598;661;46019;-74
2021/09/16 01:14:56;;;;;;;;;22.75;20.50;;;;;21.36;45.49;101139.00;146601;582;47008;-76
2021/09/16 01:17:30;;;;;;;;;16.00;15.00;;;;;21.38;45.56;101140.81;146598;589;46018;-71
2021/09/16 01:20:04;;;;;;;;;17.50;15.25;;;;;21.43;45.20;101138.22;146603;670;46008;-73
2021/09/16 01:22:40;;;;;;;;;19.50;18.75;;;;;21.47;45.31;101144.47;146599;656;46023;-75
2021/09/16 01:25:14;;;;;;;;;19.25;18.00;;;;;21.49;45.21;101147.97;146603;681;46008;-72
2021/09/16 01:27:49;;;;;;;;;19.00;18.25;;;;;21.47;45.30;101141.81;146601;643;46018;-72
2021/09/16 01:30:23;;;;;;;;;18.25;17.50;;;;;21.43;45.53;101156.69;146601;572;46023;-72
2021/09/16 01:32:58;;;;;;;;;19.00;18.50;;;;;21.39;45.85;101154.88;146599;583;46019;-73
2021/09/16 01:35:35;;;;;;;;;21.75;18.00;;;;;21.31;45.71;101152.13;146598;563;46018;-73
2021/09/16 01:38:09;;;;;;;;;21.00;20.00;;;;;21.28;46.00;101151.16;146596;563;46018;-75
2021/09/16 01:40:43;;;;;;;;;17.00;15.50;;;;;21.26;46.15;101142.37;146600;684;46019;-75
2021/09/16 01:43:19;;;;;;;;;17.25;17.25;;;;;21.21;46.17;101156.38;146599;605;46018;-74
2021/09/16 01:45:53;;;;;;;;;20.00;18.00;;;;;21.16;46.73;101151.91;146602;582;46018;-74
2021/09/16 01:48:27;;;;;;;;;16.50;15.75;;;;;21.11;46.48;101143.03;146600;569;46019;-73
2021/09/16 01:51:01;;;;;;;;;19.25;16.75;;;;;21.08;46.65;101143.84;146601;619;46018;-73
2021/09/16 01:53:35;;;;;;;;;18.50;16.50;;;;;21.07;46.31;101146.50;146599;608;46018;-73
2021/09/16 01:56:09;;;;;;;;;17.75;16.25;;;;;21.00;46.50;101150.78;146602;607;46027;-73
2021/09/16 01:58:43;;;;;;;;;16.75;16.00;;;;;20.92;46.40;101145.37;146597;563;47020;-74
2021/09/16 02:01:16;;;;;;;;;18.00;16.75;;;;;20.86;46.33;101141.75;146600;566;46019;-75
2021/09/16 02:03:54;;;;;;;;;19.00;17.75;;;;;20.80;46.50;101139.91;146598;565;46010;-75
2021/09/16 02:06:28;;;;;;;;;18.50;18.00;;;;;20.77;46.49;101146.00;146600;572;47008;-76
2021/09/16 02:09:03;;;;;;;;;19.75;19.75;;;;;20.77;46.19;101140.75;146599;591;46019;-73
2021/09/16 02:11:36;;;;;;;;;17.75;15.75;;;;;20.80;46.54;101142.53;146600;618;46018;-71
2021/09/16 02:14:10;;;;;;;;;17.00;16.75;;;;;20.81;46.58;101146.97;146598;595;47020;-71
2021/09/16 02:16:44;;;;;;;;;19.25;17.50;;;;;20.78;46.70;101146.94;146602;584;47008;-74
2021/09/16 02:19:18;;;;;;;;;17.50;16.25;;;;;20.74;46.50;101134.53;146595;607;47910;-75
2021/09/16 02:21:52;;;;;;;;;20.25;18.00;;;;;20.74;46.67;101137.19;146602;588;46026;-74
2021/09/16 02:24:26;;;;;;;;;18.25;17.50;;;;;20.76;46.76;101128.44;146599;595;46019;-74
2021/09/16 02:27:00;;;;;;;;;18.75;17.50;;;;;20.77;46.29;101137.22;146598;595;47008;-74
2021/09/16 02:29:33;;;;;;;;;18.50;17.50;;;;;20.76;46.01;101124.91;146598;565;46020;-74
2021/09/16 02:32:08;;;;;;;;;16.50;15.00;;;;;20.79;46.18;101132.88;146602;597;46019;-73
2021/09/16 02:34:42;;;;;;;;;17.75;15.25;;;;;20.85;46.01;101134.72;146598;598;46028;-73
2021/09/16 02:37:16;;;;;;;;;21.25;17.50;;;;;20.89;46.28;101137.41;146603;614;46018;-72
2021/09/16 02:39:50;;;;;;;;;17.50;16.00;;;;;20.95;46.01;101134.87;146599;606;46019;-72
2021/09/16 02:42:24;;;;;;;;;18.50;16.00;;;;;21.05;45.99;101127.12;146602;576;46018;-72
2021/09/16 02:44:58;;;;;;;;;19.50;17.00;;;;;21.10;45.75;101128.97;146595;564;47010;-72
2021/09/16 02:47:32;;;;;;;;;14.75;14.75;;;;;21.15;45.98;101129.91;146603;699;46018;-72
2021/09/16 02:50:06;;;;;;;;;21.50;17.75;;;;;21.14;45.59;101122.84;146599;577;46018;-72
2021/09/16 02:52:40;;;;;;;;;20.25;20.25;;;;;21.14;45.50;101124.59;146599;620;46018;-72
2021/09/16 02:55:18;;;;;;;;;19.50;18.00;;;;;21.15;45.66;101131.66;146598;603;47010;-73
2021/09/16 02:57:52;;;;;;;;;17.00;17.00;;;;;21.16;45.97;101128.16;146603;610;46008;-73
2021/09/16 03:00:26;;;;;;;;;17.25;16.25;;;;;21.19;45.89;101128.22;146601;721;46018;-73
2021/09/16 03:03:00;;;;;;;;;18.75;17.50;;;;;21.16;46.10;101134.31;146602;570;46019;-74
2021/09/16 03:05:34;;;;;;;;;18.25;17.50;;;;;21.13;46.13;101136.03;146598;569;46029;-73
2021/09/16 03:08:08;;;;;;;;;20.75;20.75;;;;;21.08;45.84;101133.31;146600;582;46019;-73
2021/09/16 03:10:44;;;;;;;;;16.75;16.25;;;;;21.06;46.02;101129.78;146598;571;46019;-73
2021/09/16 03:13:18;;;;;;;;;17.25;16.50;;;;;20.98;46.27;101137.56;146602;584;46018;-72
2021/09/16 03:15:52;;;;;;;;;19.50;17.00;;;;;20.94;46.22;101146.28;146601;611;46019;-72
2021/09/16 03:18:25;;;;;;;;;24.00;20.75;;;;;20.89;46.43;101142.69;146599;617;47008;-72
2021/09/16 03:21:00;;;;;;;;;21.25;20.00;;;;;20.81;46.71;101143.44;146598;607;46018;-72
2021/09/16 03:23:34;;;;;;;;;23.25;21.00;;;;;20.70;47.02;101146.78;146602;704;46019;-68
2021/09/16 03:26:08;;;;;;;;;21.50;19.50;;;;;20.61;47.46;101159.81;146599;602;46018;-80
2021/09/16 03:28:41;;;;;;;;;20.25;18.25;;;;;20.55;47.32;101164.97;146601;635;46018;-80
2021/09/16 03:31:16;;;;;;;;;22.75;19.00;;;;;20.55;47.56;101177.25;146599;603;46018;-80
2021/09/16 03:33:49;;;;;;;;;24.50;20.50;;;;;20.52;48.09;101178.97;146601;606;47006;-81
2021/09/16 03:36:23;;;;;;;;;20.75;19.75;;;;;20.43;48.08;101185.78;146599;701;46018;-80
2021/09/16 03:38:58;;;;;;;;;24.00;22.50;;;;;20.34;47.99;101193.50;146600;564;46019;-77
2021/09/16 03:41:32;;;;;;;;;28.50;23.00;;;;;20.26;48.75;101189.00;146598;573;47010;-76
2021/09/16 03:44:06;;;;;;;;;22.25;19.75;;;;;20.17;48.24;101190.56;146598;607;46018;-75
2021/09/16 03:46:40;;;;;;;;;23.75;21.00;;;;;20.08;48.50;101181.63;146599;626;46019;-76
2021/09/16 03:49:14;;;;;;;;;23.75;21.50;;;;;20.04;48.77;101181.53;146602;569;46018;-76
2021/09/16 03:51:48;;;;;;;;;20.25;19.25;;;;;20.01;48.59;101179.72;146600;580;46018;-76
2021/09/16 03:54:21;;;;;;;;;20.00;19.25;;;;;20.01;48.71;101184.12;146602;579;45019;-75
2021/09/16 03:56:55;;;;;;;;;17.75;17.25;;;;;20.03;48.92;101185.00;146598;569;47010;-75
2021/09/16 03:59:29;;;;;;;;;24.25;21.00;;;;;20.01;49.28;101184.12;146603;583;46008;-74
2021/09/16 04:02:03;;;;;;;;;22.75;20.50;;;;;20.00;48.75;101182.31;146601;573;46018;-74
2021/09/16 04:04:37;;;;;;;;;21.75;20.00;;;;;20.02;48.45;101180.62;146600;653;46010;-75
2021/09/16 04:07:11;;;;;;;;;21.00;19.50;;;;;20.09;48.50;101187.78;146598;577;46018;-75
2021/09/16 04:09:45;;;;;;;;;20.25;19.25;;;;;20.16;47.99;101180.91;146600;631;46018;-76
2021/09/16 04:12:19;;;;;;;;;22.00;19.25;;;;;20.22;48.96;101179.28;146596;575;47020;-71
2021/09/16 04:14:53;;;;;;;;;19.50;17.50;;;;;20.24;48.50;101177.53;146603;603;46008;-74
2021/09/16 04:17:27;;;;;;;;;25.50;21.75;;;;;20.21;49.05;101172.22;146599;613;46018;-75
2021/09/16 04:20:01;;;;;;;;;22.50;19.00;;;;;20.20;48.76;101165.19;146603;565;46008;-74
2021/09/16 04:22:35;;;;;;;;;22.50;21.50;;;;;20.20;48.99;101170.44;146598;601;47010;-75
2021/09/16 04:25:10;;;;;;;;;21.75;21.00;;;;;20.16;48.75;101158.09;146600;590;47008;-75
2021/09/16 04:27:44;;;;;;;;;22.00;19.25;;;;;20.15;48.58;101148.41;146597;575;47910;-74
2021/09/16 04:30:17;;;;;;;;;23.50;22.50;;;;;20.18;48.43;101152.84;146601;678;46018;-75
2021/09/16 04:32:52;;;;;;;;;21.50;19.50;;;;;20.23;48.49;101146.81;146600;572;46010;-74
2021/09/16 04:35:26;;;;;;;;;22.75;19.00;;;;;20.30;48.29;101139.91;146602;632;46008;-75
2021/09/16 04:38:00;;;;;;;;;18.25;18.25;;;;;20.40;48.19;101147.09;146597;631;46911;-74
2021/09/16 04:40:34;;;;;;;;;22.75;19.00;;;;;20.46;48.15;101151.59;146603;569;46018;-75
2021/09/16 04:43:08;;;;;;;;;20.50;17.00;;;;;20.49;48.27;101149.00;146600;579;46018;-74
2021/09/16 04:45:42;;;;;;;;;22.50;20.75;;;;;20.55;47.90;101153.53;146603;673;46029;-74
2021/09/16 04:48:16;;;;;;;;;20.25;20.00;;;;;20.59;47.95;101155.34;146599;588;46018;-74
2021/09/16 04:50:49;;;;;;;;;21.00;17.00;;;;;20.67;48.43;101159.03;146598;606;46018;-75
2021/09/16 04:53:24;;;;;;;;;22.50;18.75;;;;;21.08;48.98;101174.62;146598;642;47010;-75
2021/09/16 04:55:57;;;;;;;;;26.75;23.00;;;;;21.78;47.79;101183.56;146603;584;46008;-76
2021/09/16 04:58:31;;;;;;;;;29.00;25.50;;;;;22.55;45.91;101205.56;146597;591;46910;-75
2021/09/16 05:01:05;;;;;;;;;28.25;24.50;;;;;23.25;44.44;101222.06;146601;613;46019;-74
2021/09/16 05:03:41;;;;;;;;;32.00;28.75;;;;;23.88;43.14;101217.16;146602;798;45910;-74
2021/09/16 05:06:15;;;;;;;;;30.75;27.50;;;;;24.46;41.86;101219.16;146602;589;46018;-73
2021/09/16 05:08:49;;;;;;;;;26.75;25.50;;;;;24.84;40.82;101226.28;146599;581;46021;-73
2021/09/16 05:11:22;;;;;;;;;35.25;29.00;;;;;24.88;40.09;101226.28;146603;633;46018;-73
2021/09/16 05:13:56;;;;;;;;;27.00;22.75;;;;;24.82;40.33;101226.25;146600;590;46018;-72
2021/09/16 05:16:30;;;;;;;;;26.50;26.50;;;;;24.53;40.61;101226.25;146603;651;46019;-71
2021/09/16 05:19:04;;;;;;;;;29.75;26.50;;;;;24.09;41.44;101223.44;146599;594;46018;-71
2021/09/16 05:21:38;;;;;;;;;26.25;24.00;;;;;23.76;42.20;101222.41;146603;621;45019;-74
2021/09/16 05:24:16;;;;;;;;;27.75;25.25;;;;;23.64;43.01;101220.53;146598;607;47010;-73
2021/09/16 05:26:51;;;;;;;;;24.00;21.50;;;;;23.70;43.49;101222.38;146597;563;47008;-73
2021/09/16 05:29:25;;;;;;;;;27.50;25.50;;;;;23.85;43.02;101224.22;146597;599;47011;-75
2021/09/16 05:31:59;;;;;;;;;27.50;24.75;;;;;23.98;42.25;101211.03;146600;609;47008;-76
2021/09/16 05:34:33;;;;;;;;;21.50;21.00;;;;;24.15;42.65;101211.09;146599;651;46018;-75
2021/09/16 05:37:07;;;;;;;;;22.75;20.50;;;;;24.34;42.83;101214.69;146603;570;46008;-75
2021/09/16 05:39:42;;;;;;;;;22.00;19.75;;;;;24.54;42.62;101213.88;146596;598;47910;-75
2021/09/16 05:42:16;;;;;;;;;26.75;20.50;;;;;24.70;41.83;101215.66;146600;581;46018;-75
2021/09/16 05:44:50;;;;;;;;;24.75;21.00;;;;;24.85;41.34;101217.44;146597;572;46019;-73
2021/09/16 05:47:24;;;;;;;;;23.75;20.50;;;;;24.98;41.54;101213.88;146603;617;46010;-73
2021/09/16 05:49:57;;;;;;;;;22.50;21.75;;;;;25.13;41.34;101223.66;146598;603;46018;-74
2021/09/16 05:52:35;;;;;;;;;26.75;24.75;;;;;25.30;41.14;101226.31;146600;586;46019;-74
2021/09/16 05:55:10;;;;;;;;;26.50;23.00;;;;;25.50;41.20;101218.28;146597;640;46018;-74
2021/09/16 05:57:43;;;;;;;;;25.00;24.00;;;;;25.72;40.41;101212.03;146603;578;46018;-74
2021/09/16 06:00:19;;;;;;;;;28.75;24.75;;;;;25.93;40.67;101215.53;146599;564;46911;-73
2021/09/16 06:02:54;;;;;;;;;25.00;22.25;;;;;26.11;40.89;101215.44;146605;642;45018;-73
2021/09/16 06:05:29;;;;;;;;;26.75;23.75;;;;;26.29;39.86;101218.88;146600;606;46010;-75
2021/09/16 06:08:02;;;;;;;;;27.00;27.00;;;;;26.45;39.63;101209.94;146602;668;46018;-76
2021/09/16 06:10:37;;;;;;;;;24.50;22.50;;;;;26.57;38.89;101215.19;146597;737;46018;-74
2021/09/16 06:13:11;;;;;;;;;23.75;23.25;;;;;26.65;39.07;101221.34;146602;619;46019;-73
2021/09/16 06:15:45;;;;;;;;;25.75;24.00;;;;;26.71;39.32;101225.75;146599;632;46018;-75
2021/09/16 06:18:19;;;;;;;;;24.75;24.25;;;;;26.80;39.64;101227.47;146600;589;46020;-75
2021/09/16 06:20:53;;;;;;;;;25.00;24.00;;;;;26.93;39.01;101227.34;146596;718;47010;-75
2021/09/16 06:23:27;;;;;;;;;28.00;23.50;;;;;27.06;38.71;101224.56;146602;655;46018;-74
2021/09/16 06:26:01;;;;;;;;;29.00;26.25;;;;;27.16;38.82;101232.47;146598;594;46018;-72
2021/09/16 06:28:35;;;;;;;;;26.75;25.00;;;;;27.30;38.44;101232.38;146604;565;46008;-79
2021/09/16 06:31:09;;;;;;;;;26.75;25.25;;;;;27.45;39.04;101236.66;146596;569;47021;-74
2021/09/16 06:33:43;;;;;;;;;28.25;26.75;;;;;27.57;38.57;101238.28;146603;600;46008;-77
2021/09/16 06:36:17;;;;;;;;;25.25;25.25;;;;;27.68;37.85;101230.19;146597;739;47911;-73
2021/09/16 06:38:51;;;;;;;;;26.25;23.75;;;;;27.78;38.11;101232.75;146602;596;46018;-73
2021/09/16 06:41:30;;;;;;;;;24.25;24.00;;;;;27.84;37.21;101218.50;146599;584;46018;-71
2021/09/16 06:44:03;;;;;;;;;27.00;22.75;;;;;27.98;37.07;101226.34;146601;613;46019;-74
2021/09/16 06:46:38;;;;;;;;;28.00;22.75;;;;;28.04;37.40;101223.59;146599;585;46028;-71
2021/09/16 06:49:11;;;;;;;;;25.25;23.75;;;;;28.12;36.63;101213.69;146603;675;46018;-74
2021/09/16 06:51:45;;;;;;;;;21.00;19.50;;;;;28.19;37.08;101212.69;146598;612;47021;-71
2021/09/16 06:54:19;;;;;;;;;25.25;22.00;;;;;28.27;36.53;101208.12;146603;627;46018;-72
2021/09/16 06:56:53;;;;;;;;;24.00;21.25;;;;;28.39;37.22;101212.41;146599;742;47010;-70
2021/09/16 06:59:27;;;;;;;;;23.00;23.00;;;;;28.53;37.21;101206.91;146598;706;47008;-72
2021/09/16 07:02:01;;;;;;;;;22.75;21.25;;;;;28.65;36.09;101216.50;146601;571;47010;-71
2021/09/16 07:04:35;;;;;;;;;22.25;22.25;;;;;28.11;36.43;101112.41;146604;603;46008;-72
2021/09/16 07:07:09;;;;;;;;;22.50;19.50;;;;;28.67;36.25;101217.38;146598;595;46010;-77
2021/09/16 07:09:43;;;;;;;;;22.75;21.75;;;;;28.69;36.46;101216.44;146600;587;46018;-72
2021/09/16 07:12:18;;;;;;;;;22.50;21.50;;;;;28.67;36.47;101220.91;146598;678;47010;-71
2021/09/16 07:14:51;;;;;;;;;24.75;23.00;;;;;28.64;37.23;101223.63;146600;565;46018;-71
2021/09/16 07:17:25;;;;;;;;;25.75;24.50;;;;;28.61;36.41;101220.13;146599;571;46018;-70
2021/09/16 07:19:59;;;;;;;;;21.75;20.50;;;;;28.63;37.50;101219.22;146604;653;46019;-71
2021/09/16 07:22:34;;;;;;;;;21.25;19.75;;;;;28.73;36.25;101219.94;146599;600;46018;-71
2021/09/16 07:25:08;;;;;;;;;25.25;24.00;;;;;28.84;37.49;101225.97;146603;593;46021;-71
2021/09/16 07:27:42;;;;;;;;;26.50;23.00;;;;;29.00;36.62;101234.59;146599;571;46019;-70
2021/09/16 07:30:17;;;;;;;;;26.50;23.25;;;;;29.15;37.19;101242.38;146600;622;46018;-71
2021/09/16 07:32:51;;;;;;;;;26.75;22.75;;;;;29.33;37.03;101235.84;146600;615;46018;-71
2021/09/16 07:35:25;;;;;;;;;24.25;21.50;;;;;29.57;37.17;101222.94;146600;656;46019;-71
2021/09/16 07:38:09;;;;;;;;;23.50;21.75;;;;;29.82;36.20;101229.59;146597;580;47010;-71
2021/09/16 07:40:43;;;;;;;;;24.50;24.00;;;;;30.05;35.90;101229.09;146603;610;46008;-71
2021/09/16 07:43:17;;;;;;;;;19.75;19.75;;;;;30.27;35.36;101229.53;146599;620;46913;-71
2021/09/16 07:45:51;;;;;;;;;21.75;21.75;;;;;30.47;35.24;101228.19;146603;585;47010;-71
2021/09/16 07:48:28;;;;;;;;;23.25;20.00;;;;;30.63;35.51;101229.63;146598;598;46018;-71
2021/09/16 07:51:02;;;;;;;;;21.25;19.75;;;;;30.70;34.44;101228.53;146601;588;47008;-71
2021/09/16 07:53:36;;;;;;;;;24.75;21.75;;;;;30.70;34.10;101228.53;146597;635;48020;-71
2021/09/16 07:56:11;;;;;;;;;22.75;20.25;;;;;30.67;35.00;101231.28;146604;575;47008;-71
2021/09/16 07:58:49;;;;;;;;;22.75;21.25;;;;;30.57;35.85;101227.09;146596;585;47010;-72
2021/09/16 08:01:25;;;;;;;;;22.25;21.00;;;;;30.32;36.75;101227.66;146601;589;45018;-72
2021/09/16 08:04:00;;;;;;;;;19.00;17.25;;;;;30.14;37.01;101228.03;146598;631;46011;-71
2021/09/16 08:06:34;;;;;;;;;26.50;23.75;;;;;29.99;36.34;101228.34;146600;697;46018;-72
2021/09/16 08:09:09;;;;;;;;;23.25;22.00;;;;;29.78;36.31;101222.53;146599;599;46018;-72
2021/09/16 08:11:42;;;;;;;;;25.00;22.75;;;;;29.65;35.84;101218.34;146600;636;47019;-72
2021/09/16 08:14:17;;;;;;;;;24.25;22.50;;;;;29.62;36.85;101223.75;146599;638;46018;-72
2021/09/16 08:16:53;;;;;;;;;29.50;23.50;;;;;29.77;36.91;101226.13;146603;606;46018;-71
2021/09/16 08:19:27;;;;;;;;;24.00;23.50;;;;;29.94;35.79;101220.44;146597;610;47011;-71
2021/09/16 08:22:01;;;;;;;;;23.50;22.75;;;;;30.10;35.80;101215.63;146601;604;46018;-72
2021/09/16 08:24:36;;;;;;;;;22.00;21.00;;;;;30.25;35.25;101209.06;146599;616;46018;-72
2021/09/16 08:27:10;;;;;;;;;23.00;21.50;;;;;30.33;36.32;101213.34;146602;591;46009;-71
2021/09/16 08:29:44;;;;;;;;;23.00;21.50;;;;;30.40;36.91;101213.19;146600;594;46010;-70
2021/09/16 08:32:18;;;;;;;;;26.00;26.00;;;;;30.42;37.39;101211.38;146601;603;47008;-70
2021/09/16 08:34:52;;;;;;;;;25.50;23.00;;;;;30.36;38.40;101209.72;146598;605;46030;-71
2021/09/16 08:37:26;;;;;;;;;26.75;24.25;;;;;30.32;37.67;101206.25;146600;578;47008;-70
2021/09/16 08:40:00;;;;;;;;;24.50;22.50;;;;;30.34;38.23;101209.78;146597;617;46010;-71
2021/09/16 08:42:34;;;;;;;;;25.75;25.00;;;;;30.37;37.91;101207.03;146606;666;46008;-72
2021/09/16 08:45:13;;;;;;;;;22.50;22.50;;;;;30.32;38.15;101200.03;146599;605;46018;-71
2021/09/16 08:47:50;;;;;;;;;26.00;23.75;;;;;30.35;37.48;101211.53;146603;614;46018;-72
2021/09/16 08:50:28;;;;;;;;;26.00;25.00;;;;;30.34;37.28;101209.78;146599;565;46018;-71
2021/09/16 08:53:03;;;;;;;;;24.50;21.25;;;;;30.40;37.94;101213.19;146599;570;46018;-72
2021/09/16 08:55:37;;;;;;;;;27.00;25.25;;;;;30.42;37.47;101209.59;146602;585;46019;-71
2021/09/16 08:58:12;;;;;;;;;26.00;23.00;;;;;30.42;37.20;101208.72;146601;622;46914;-74
2021/09/16 09:00:46;;;;;;;;;28.25;24.25;;;;;30.49;37.54;101203.16;146600;570;46018;-72
2021/09/16 09:03:20;;;;;;;;;26.50;25.75;;;;;30.54;37.16;101192.38;146600;605;47008;-77
2021/09/16 09:05:54;;;;;;;;;27.75;24.25;;;;;30.60;37.07;101200.25;146599;570;46010;-71
2021/09/16 09:08:30;;;;;;;;;22.00;21.50;;;;;30.63;36.80;101193.94;146600;701;46008;-72
2021/09/16 09:11:05;;;;;;;;;22.50;21.25;;;;;30.64;36.87;101187.66;146599;587;46019;-71
2021/09/16 09:13:43;;;;;;;;;25.00;24.00;;;;;30.73;36.67;101184.75;146603;576;46018;-75
2021/09/16 09:16:17;;;;;;;;;27.50;24.00;;;;;30.79;36.08;101184.62;146597;580;47912;-75
2021/09/16 09:18:53;;;;;;;;;29.50;25.75;;;;;30.81;36.12;101172.06;146601;564;46018;-73
2021/09/16 09:21:27;;;;;;;;;24.00;22.75;;;;;30.66;36.64;101173.34;146599;612;46018;-74
2021/09/16 09:24:01;;;;;;;;;26.50;25.00;;;;;30.57;37.01;101176.22;146600;661;46018;-69
2021/09/16 09:26:38;;;;;;;;;26.50;23.75;;;;;30.47;37.01;101170.22;146599;570;45913;-73
2021/09/16 09:29:21;;;;;;;;;30.75;28.00;;;;;30.50;37.75;101166.56;146601;613;46018;-72
2021/09/16 09:32:08;;;;;;;;;28.75;25.25;;;;;30.64;37.55;101171.59;146599;599;46914;-73
2021/09/16 09:34:44;;;;;;;;;25.00;21.75;;;;;30.82;37.38;101177.41;146599;595;46019;-73
2021/09/16 09:37:24;;;;;;;;;27.50;24.50;;;;;31.01;37.22;101164.41;146599;573;46020;-72
2021/09/16 09:40:07;;;;;;;;;23.00;21.00;;;;;31.22;36.64;101173.69;146601;663;46019;-71
2021/09/16 09:42:42;;;;;;;;;23.00;21.25;;;;;31.41;36.50;101167.84;146597;585;47018;-70
2021/09/16 09:45:16;;;;;;;;;25.50;23.50;;;;;31.59;35.86;101171.78;146601;569;46010;-72
2021/09/16 09:47:52;;;;;;;;;27.25;25.00;;;;;31.74;35.35;101163.28;146599;706;46018;-69
2021/09/16 09:50:29;;;;;;;;;22.75;20.75;;;;;31.79;35.40;101160.47;146601;602;46012;-73
2021/09/16 09:53:18;;;;;;;;;30.00;25.00;;;;;31.88;35.52;101166.44;146599;620;46030;-73
2021/09/16 09:55:52;;;;;;;;;24.25;22.25;;;;;31.95;34.65;101156.44;146602;586;46018;-74
2021/09/16 09:58:38;;;;;;;;;26.75;23.75;;;;;32.08;35.62;101164.97;146597;651;47010;-74
2021/09/16 10:01:35;;;;;;;;;26.00;23.25;;;;;32.30;34.97;101162.50;146602;622;46008;-73
2021/09/16 10:04:30;;;;;;;;;24.75;24.25;;;;;32.37;33.86;101159.59;146601;573;46019;-74
2021/09/16 10:07:05;;;;;;;;;25.00;21.50;;;;;32.29;33.76;101155.37;146603;585;46018;-73
2021/09/16 10:09:39;;;;;;;;;25.50;22.25;;;;;32.23;33.65;101152.91;146600;707;46019;-73
2021/09/16 10:12:13;;;;;;;;;23.50;21.00;;;;;32.21;34.26;101158.28;146597;563;47008;-73
2021/09/16 10:14:47;;;;;;;;;22.75;22.00;;;;;32.34;34.16;101162.37;146599;571;47010;-73
2021/09/16 10:17:21;;;;;;;;;23.00;21.00;;;;;32.52;33.97;101158.22;146602;601;45019;-73
2021/09/16 10:19:56;;;;;;;;;25.25;24.00;;;;;32.69;33.15;101163.03;146596;606;47010;-73
2021/09/16 10:22:31;;;;;;;;;23.50;21.50;;;;;32.75;30.92;101164.62;146599;696;46018;-74
2021/09/16 10:25:06;;;;;;;;;17.25;16.75;;;;;32.80;33.54;101160.84;146599;609;46019;-73
2021/09/16 10:27:46;;;;;;;;;21.00;21.00;;;;;32.89;33.48;101159.66;146602;582;46018;-73
2021/09/16 10:30:46;;;;;;;;;19.00;18.25;;;;;32.42;31.19;101081.56;146599;587;46018;-73
2021/09/16 10:33:33;;;;;;;;;23.25;22.50;;;;;32.75;32.75;101144.03;146601;601;46028;-73
2021/09/16 10:36:13;;;;;;;;;20.75;20.25;;;;;32.60;31.74;101145.41;146598;566;46018;-72
2021/09/16 10:38:53;;;;;;;;;23.25;21.00;;;;;32.45;31.85;101145.06;146600;676;46020;-73
2021/09/16 10:41:41;;;;;;;;;20.25;19.75;;;;;32.33;33.60;101140.94;146597;583;46019;-73
2021/09/16 10:44:24;;;;;;;;;23.75;22.50;;;;;32.16;33.07;101130.75;146602;632;46018;-74
2021/09/16 10:47:01;;;;;;;;;23.50;23.25;;;;;32.01;32.60;101137.47;146596;588;47912;-72
2021/09/16 10:49:36;;;;;;;;;23.50;19.50;;;;;31.87;32.15;101128.94;146600;617;46018;-73
2021/09/16 10:52:35;;;;;;;;;21.25;18.00;;;;;31.14;34.13;101016.75;146600;573;47010;-72
2021/09/16 10:55:10;;;;;;;;;16.50;16.50;;;;;31.70;33.03;101113.38;146600;677;46019;-72
2021/09/16 10:57:44;;;;;;;;;20.00;20.00;;;;;31.72;33.18;101109.72;146599;578;46010;-72
2021/09/16 11:00:22;;;;;;;;;13.50;13.50;;;;;31.41;33.46;101029.38;146604;628;46018;-73
2021/09/16 11:03:06;;;;;;;;;22.00;19.25;;;;;31.97;34.38;101098.28;146600;641;46019;-72
2021/09/16 11:05:46;;;;;;;;;22.50;20.50;;;;;31.89;33.44;101101.19;146601;574;46018;-72
2021/09/16 11:08:22;;;;;;;;;20.00;19.00;;;;;31.84;32.72;101102.22;146598;607;46018;-71
2021/09/16 11:10:58;;;;;;;;;22.50;21.25;;;;;31.82;32.33;101096.03;146602;610;46019;-73
2021/09/16 11:13:36;;;;;;;;;23.75;21.50;;;;;31.84;31.76;101091.47;146598;639;46010;-72
2021/09/16 11:16:10;;;;;;;;;21.75;19.75;;;;;31.81;32.72;101092.47;146602;567;46008;-74
2021/09/16 11:18:47;;;;;;;;;19.00;18.25;;;;;31.79;32.72;101088.97;146600;567;46010;-74
2021/09/16 11:21:22;;;;;;;;;19.75;17.25;;;;;31.86;32.83;101090.50;146601;588;46012;-73
2021/09/16 11:23:56;;;;;;;;;28.25;23.50;;;;;31.84;32.44;101087.03;146596;615;47020;-73
2021/09/16 11:26:30;;;;;;;;;21.25;20.75;;;;;31.73;32.26;101084.66;146603;594;46018;-72
2021/09/16 11:29:10;;;;;;;;;26.75;23.50;;;;;31.69;31.63;101093.72;146596;579;47912;-73
2021/09/16 11:31:44;;;;;;;;;20.25;19.75;;;;;31.62;30.83;101081.44;146600;604;46019;-73
2021/09/16 11:34:21;;;;;;;;;14.00;14.00;;;;;31.49;30.12;101080.91;146597;566;47912;-72
2021/09/16 11:37:14;;;;;;;;;20.00;19.50;;;;;31.43;31.57;101072.19;146603;578;46008;-73
2021/09/16 11:39:58;;;;;;;;;22.75;19.25;;;;;31.39;30.43;101067.84;146599;576;47010;-72
2021/09/16 11:42:34;;;;;;;;;21.75;21.75;;;;;31.06;29.97;101046.47;146602;612;47018;-71
2021/09/16 11:45:28;;;;;;;;;17.50;17.50;;;;;31.07;30.06;101069.62;146598;585;47020;-72
2021/09/16 11:48:08;;;;;;;;;21.75;18.75;;;;;31.07;30.62;101064.28;146603;575;46019;-72